• METAR

    LHBP Budapest Liszt Ferenc repülőtér METAR

    LHBP 181830Z 30007KT CAVOK M00/M03 Q1019 NOSIG

    QNH légnyomás:1019hpa
    Hőmérséklet/temperature: 0°C
    Harmatpont/Dew Point Temp: -3°C

    LHDC Debreceni repülőtér METAR

    LHDC 181815Z 03012KT 9999 SCT036 BKN083 02/M02 Q1017 NOSIG

    QNH légnyomás:1017hpa
    Hőmérskélet/temperature: 2°C
    Harmatpont/Dew Point Temp: -2°C

    LHPR Győr-pér repülőtér METAR

    LHPR 181815Z AUTO 33007KT CAVOK M01/M03 Q1020 RMK BLU

    QNH légnyomás:1020hpa
    Hőmérskélet/temperature: -1°C
    Harmatpont/Dew Point Temp: -3°C

    lhsm Sármellék repülőtér METAR

    LHSM 181545Z 33005KT CAVOK 02/M02 Q1019

    QNH légnyomás:1019hpa
    Hőmérskélet/temperature: 2°C
    Harmatpont/Dew Point Temp: -2°C

    lhpp Pécs-pogány repülőtér METAR

    LHPP 181645Z 34006KT CAVOK 02/M02 Q1019

    QNH légnyomás:1019hpa
    Hőmérskélet/temperature: 2°C
    Harmatpont/Dew Point Temp: -2°C

    LHKE Kecskemét repülőtér METAR

    LHKE 181815Z 32012KT CAVOK 02/M04 Q1018 NOSIG RMK BLU

    QNH légnyomás:1018hpa
    Hőmérskélet/temperature: 2°C
    Harmatpont/Dew Point Temp: -4°C

    LHSN Szolnok repülőtér METAR

    LHSN 181815Z 30008KT CAVOK 02/M04 Q1017 NOSIG RMK BLU

    QNH légnyomás:1017hpa
    Hőmérskélet/temperature: 2°C
    Harmatpont/Dew Point Temp: -4°C

    LHUD szeged repülőtér METAR

    LHUD 181815Z 30007KT CAVOK 03/M01 Q1018

    QNH légnyomás:1018hpa
    Hőmérskélet/temperature: 3°C
    Harmatpont/Dew Point Temp: -1°C

  • TÉRKÉPEK

    Felhőkép

    Széltérkép

    Hőtérkép

    radarkép

    map

    map

  • Műholdképek

    Magyarország műholdkép

    Europa műholdkép

    Europa szinoptikus térkép

  • ELTE ELŐREJELZÉS (2 NAP LHBP)

    2 napos légnyomás előrejelzés Budapest LHBP

    2 napos szél előrejelzés Budapest LHBP

    2 napos termik trigger előrejelzés Budapest LHBP

    2 napos felhőzet előrejelzés Budapest LHBP

    2 napos thermal index profile előrejelzés Budapest LHBP

    2 napos átlag emelés előrejelzés Budapest LHBP

    2 napos felhő alap előrejelzés Budapest LHBP

    2 napos hőmérséklet advekció előrejelzés Budapest LHBP

  • VILLÁMRADAR

  • ELŐREJELZÉS

  • WINDFINDER ELŐREJELZÉS

  • RIASZTÁS - VÉSZJELZÉS

Repülésmeteorológia, aktuális időjárási helyzet és előrejelzés

Repülésmeteorológia, várható időjárás jelentések, előrejelzések és riasztások. METAR, TAF adatok, aktuális időjárás helyzetek és térképek.

A meteorológia kialakulásában és fejlődésében kiemelt szerep jutott a repülésnek, illetve a repülés technikai fejlődésének. A repülésmeteorológia elsődlegesen a repülés biztonságát, másodlagosan a repülés gazdaságosságát hivatott szolgálni. Eleinte a katonai repülőgépeknek, később a polgári repülésnek, ma már a sportrepülő pilótáknak, és a mezőgazdasági pilótáknak is egyaránt szükségük van a naprakész meteorológiai információkra.

Repülésmeteorológia oldalunkon összegyűjtöttük a legnépszerűbb és legjobb időjárás oldalak hivatkozásait, hogy repülés előtt vagy akár közben minden fontos forrást egyszerűen és gyorsan megtalálj. Magyarország várható időjárása, légállapoti diagramok, termik előrejelzés, METAR adatok, vészjelzések és figyelmeztetések. A képernyő szélén közvetlenül pedig pozíciód aktuális időjárási paramétereit is megtalálod.

JOGI NYILATKOZAT

Az oldal használatával a látogató elfogadja az alábbi felhasználási feltételeket:

Az oldalon feltüntetett repülésmeteorológia információkat mindenki csak saját felelősségre használhatja. A feltüntetett külső forrásokból származó információk pontosságáért és tartalmáért, valamint az esetlegesen ebből adódó bármilyen káresemény kapcsán a FLYTIME.HU nem vállal felelősséget!